Greenville Airport (GRE)
Greenville, IL
Field Elevation: 540
Lat: 38°50.00N  Long: 89°22.00W
CTAF/Unicom Freq: 123.0500
   
     For Weather-by-Phone, call (618) 664-1939
Weather Advisories
2021-01-22   14:49 Z
Altimeter 30.16" Hg
Wind 330° @ 14 KT
Gusts 18 KT
Visibility 10 SM
Temperature -2° C (28° F)
Dewpoint -9° C (16° F)
Relative Humidity 61%
Density Altitude --
Condensation Altitude 3,900 feet
Wind Chill: -9° C (16° F)
Wind and Runways
Indicated Runway = 36
Headwind = 12 kt
Crosswind = 7 kt
History
 
 
 
More Info
 
NOAA Forecast
 
Airport IQ 5010
(FLV) Sherman Airfield
(VLA) Vandalia
 
about Belfort Instrument
 
FAA Disclaimer: The data displayed is for advisory purposes only and is not to be used for flight planning or operations. For official data, please call (618) 664-1939 to hear the current automated AWOS voice message.
  METAR GRE 221449Z AUTO 33014G18KT 10 SM M02/M09 A3016